sensor_id;sensor_type;location;lat;lon;timestamp;pressure;altitude;pressure_sealevel;temperature;humidity
31346;BME280;21711;49.708;18.568;2022-08-04T00:01:46;97582.69;;;15.43;100.00
31346;BME280;21711;49.708;18.568;2022-08-04T00:04:31;97579.75;;;15.44;100.00
31346;BME280;21711;49.708;18.568;2022-08-04T00:09:58;97577.06;;;15.44;100.00
31346;BME280;21711;49.708;18.568;2022-08-04T00:12:31;97582.69;;;15.43;100.00
31346;BME280;21711;49.708;18.568;2022-08-04T00:15:07;97585.16;;;15.39;100.00
31346;BME280;21711;49.708;18.568;2022-08-04T00:17:57;97577.47;;;15.37;100.00
31346;BME280;21711;49.708;18.568;2022-08-04T00:20:32;97580.94;;;15.38;100.00
31346;BME280;21711;49.708;18.568;2022-08-04T00:23:01;97574.81;;;15.37;100.00
31346;BME280;21711;49.708;18.568;2022-08-04T00:25:29;97575.59;;;15.38;100.00
31346;BME280;21711;49.708;18.568;2022-08-04T00:27:56;97571.34;;;15.37;100.00
31346;BME280;21711;49.708;18.568;2022-08-04T00:30:26;97574.44;;;15.30;100.00
31346;BME280;21711;49.708;18.568;2022-08-04T00:32:56;97566.31;;;15.21;100.00
31346;BME280;21711;49.708;18.568;2022-08-04T00:35:24;97568.69;;;15.23;100.00
31346;BME280;21711;49.708;18.568;2022-08-04T00:37:54;97579.44;;;15.18;100.00
31346;BME280;21711;49.708;18.568;2022-08-04T00:47:03;97572.44;;;15.22;100.00
31346;BME280;21711;49.708;18.568;2022-08-04T00:50:08;97573.22;;;15.22;100.00
31346;BME280;21711;49.708;18.568;2022-08-04T00:55:36;97577.75;;;15.22;100.00
31346;BME280;21711;49.708;18.568;2022-08-04T00:58:42;97575.88;;;15.22;100.00
31346;BME280;21711;49.708;18.568;2022-08-04T01:01:40;97573.53;;;15.21;100.00
31346;BME280;21711;49.708;18.568;2022-08-04T01:14:53;97574.97;;;15.13;100.00
31346;BME280;21711;49.708;18.568;2022-08-04T01:17:58;97571.53;;;15.12;100.00
31346;BME280;21711;49.708;18.568;2022-08-04T01:21:01;97575.50;;;15.15;100.00
31346;BME280;21711;49.708;18.568;2022-08-04T01:29:34;97568.28;;;15.16;100.00
31346;BME280;21711;49.708;18.568;2022-08-04T01:32:33;97568.50;;;15.19;100.00
31346;BME280;21711;49.708;18.568;2022-08-04T01:35:35;97567.22;;;15.17;100.00
31346;BME280;21711;49.708;18.568;2022-08-04T01:38:43;97569.66;;;15.13;100.00
31346;BME280;21711;49.708;18.568;2022-08-04T01:41:14;97571.03;;;15.10;100.00
31346;BME280;21711;49.708;18.568;2022-08-04T01:44:00;97566.03;;;15.09;100.00
31346;BME280;21711;49.708;18.568;2022-08-04T01:46:33;97572.81;;;15.15;100.00
31346;BME280;21711;49.708;18.568;2022-08-04T01:49:02;97565.81;;;15.19;100.00
31346;BME280;21711;49.708;18.568;2022-08-04T01:51:30;97561.78;;;15.22;100.00
31346;BME280;21711;49.708;18.568;2022-08-04T01:54:02;97564.22;;;15.18;100.00
31346;BME280;21711;49.708;18.568;2022-08-04T01:56:30;97569.34;;;15.15;100.00
31346;BME280;21711;49.708;18.568;2022-08-04T01:58:59;97564.66;;;15.11;100.00
31346;BME280;21711;49.708;18.568;2022-08-04T02:01:35;97560.38;;;15.10;100.00
31346;BME280;21711;49.708;18.568;2022-08-04T02:04:03;97561.84;;;15.03;100.00
31346;BME280;21711;49.708;18.568;2022-08-04T02:09:46;97554.84;;;15.07;100.00
31346;BME280;21711;49.708;18.568;2022-08-04T02:15:41;97545.50;;;14.95;100.00
31346;BME280;21711;49.708;18.568;2022-08-04T02:18:27;97544.78;;;14.90;100.00
31346;BME280;21711;49.708;18.568;2022-08-04T02:21:03;97546.56;;;14.94;100.00
31346;BME280;21711;49.708;18.568;2022-08-04T02:26:18;97546.78;;;14.98;100.00
31346;BME280;21711;49.708;18.568;2022-08-04T02:31:48;97544.81;;;15.18;100.00
31346;BME280;21711;49.708;18.568;2022-08-04T02:34:27;97550.44;;;15.16;100.00
31346;BME280;21711;49.708;18.568;2022-08-04T02:36:55;97550.44;;;15.16;100.00
31346;BME280;21711;49.708;18.568;2022-08-04T02:39:29;97550.25;;;15.41;100.00
31346;BME280;21711;49.708;18.568;2022-08-04T02:42:14;97546.84;;;15.49;100.00
31346;BME280;21711;49.708;18.568;2022-08-04T02:44:49;97547.38;;;15.51;100.00
31346;BME280;21711;49.708;18.568;2022-08-04T02:47:21;97551.63;;;15.38;100.00
31346;BME280;21711;49.708;18.568;2022-08-04T02:50:11;97552.69;;;15.37;100.00
31346;BME280;21711;49.708;18.568;2022-08-04T02:52:57;97540.47;;;15.22;100.00
31346;BME280;21711;49.708;18.568;2022-08-04T02:55:28;97544.91;;;15.12;100.00
31346;BME280;21711;49.708;18.568;2022-08-04T02:57:58;97544.31;;;15.02;100.00
31346;BME280;21711;49.708;18.568;2022-08-04T03:00:28;97549.16;;;14.99;100.00
31346;BME280;21711;49.708;18.568;2022-08-04T03:03:37;97544.69;;;14.95;100.00
31346;BME280;21711;49.708;18.568;2022-08-04T03:06:15;97549.03;;;14.91;100.00
31346;BME280;21711;49.708;18.568;2022-08-04T03:21:59;97554.06;;;14.73;100.00
31346;BME280;21711;49.708;18.568;2022-08-04T03:38:10;97562.31;;;14.77;100.00
31346;BME280;21711;49.708;18.568;2022-08-04T04:20:24;97580.09;;;17.48;100.00
31346;BME280;21711;49.708;18.568;2022-08-04T04:35:32;97580.75;;;18.96;100.00
31346;BME280;21711;49.708;18.568;2022-08-04T04:51:04;97597.47;;;20.43;100.00
31346;BME280;21711;49.708;18.568;2022-08-04T04:54:12;97604.84;;;21.14;100.00
31346;BME280;21711;49.708;18.568;2022-08-04T04:57:06;97607.31;;;21.69;100.00
31346;BME280;21711;49.708;18.568;2022-08-04T04:59:46;97607.69;;;22.21;100.00
31346;BME280;21711;49.708;18.568;2022-08-04T05:14:32;97597.47;;;24.36;100.00
31346;BME280;21711;49.708;18.568;2022-08-04T05:17:29;97597.69;;;24.90;100.00
31346;BME280;21711;49.708;18.568;2022-08-04T05:20:12;97605.38;;;24.88;100.00
31346;BME280;21711;49.708;18.568;2022-08-04T05:23:01;97605.88;;;25.44;100.00
31346;BME280;21711;49.708;18.568;2022-08-04T05:26:00;97607.03;;;25.43;100.00
31346;BME280;21711;49.708;18.568;2022-08-04T05:28:35;97602.56;;;26.43;100.00
31346;BME280;21711;49.708;18.568;2022-08-04T05:31:20;97612.25;;;26.44;83.14
31346;BME280;21711;49.708;18.568;2022-08-04T05:33:57;97604.16;;;27.27;78.96
31346;BME280;21711;49.708;18.568;2022-08-04T05:36:51;97602.50;;;27.12;80.00
31346;BME280;21711;49.708;18.568;2022-08-04T05:39:24;97603.44;;;27.90;74.87
31346;BME280;21711;49.708;18.568;2022-08-04T05:41:52;97602.47;;;28.28;58.24
31346;BME280;21711;49.708;18.568;2022-08-04T05:44:31;97606.28;;;28.23;56.51
31346;BME280;21711;49.708;18.568;2022-08-04T05:47:00;97606.06;;;28.86;56.26
31346;BME280;21711;49.708;18.568;2022-08-04T05:49:31;97607.28;;;28.93;53.01
31346;BME280;21711;49.708;18.568;2022-08-04T05:52:01;97606.13;;;29.23;53.38
31346;BME280;21711;49.708;18.568;2022-08-04T05:54:30;97612.69;;;28.78;54.41
31346;BME280;21711;49.708;18.568;2022-08-04T05:56:58;97613.91;;;29.50;53.26
31346;BME280;21711;49.708;18.568;2022-08-04T05:59:28;97623.84;;;30.29;48.45
31346;BME280;21711;49.708;18.568;2022-08-04T06:01:59;97620.31;;;30.29;50.50
31346;BME280;21711;49.708;18.568;2022-08-04T06:04:37;97620.16;;;31.26;46.47
31346;BME280;21711;49.708;18.568;2022-08-04T06:07:05;97628.78;;;30.56;49.17
31346;BME280;21711;49.708;18.568;2022-08-04T06:09:33;97615.75;;;30.86;47.95
31346;BME280;21711;49.708;18.568;2022-08-04T06:12:06;97614.81;;;30.43;50.39
31346;BME280;21711;49.708;18.568;2022-08-04T06:14:42;97620.91;;;30.73;48.81
31346;BME280;21711;49.708;18.568;2022-08-04T06:17:15;97620.63;;;32.01;44.76
31346;BME280;21711;49.708;18.568;2022-08-04T06:20:08;97625.75;;;32.30;45.04
31346;BME280;21711;49.708;18.568;2022-08-04T06:22:53;97623.69;;;32.07;45.72
31346;BME280;21711;49.708;18.568;2022-08-04T06:25:27;97619.94;;;32.24;45.60
31346;BME280;21711;49.708;18.568;2022-08-04T06:27:57;97627.75;;;32.85;42.10
31346;BME280;21711;49.708;18.568;2022-08-04T06:30:26;97622.47;;;32.98;43.78
31346;BME280;21711;49.708;18.568;2022-08-04T06:32:55;97625.78;;;33.13;43.18
31346;BME280;21711;49.708;18.568;2022-08-04T06:35:31;97633.00;;;33.75;42.07
31346;BME280;21711;49.708;18.568;2022-08-04T06:38:00;97629.75;;;35.11;39.30
31346;BME280;21711;49.708;18.568;2022-08-04T06:40:30;97627.19;;;34.87;38.28
31346;BME280;21711;49.708;18.568;2022-08-04T06:43:06;97633.13;;;35.35;37.91
31346;BME280;21711;49.708;18.568;2022-08-04T06:45:36;97621.75;;;35.50;37.84
31346;BME280;21711;49.708;18.568;2022-08-04T06:48:06;97629.97;;;35.96;37.92
31346;BME280;21711;49.708;18.568;2022-08-04T06:50:35;97621.47;;;36.20;36.25
31346;BME280;21711;49.708;18.568;2022-08-04T06:53:25;97629.31;;;35.92;35.72
31346;BME280;21711;49.708;18.568;2022-08-04T06:55:53;97619.31;;;36.41;35.02
31346;BME280;21711;49.708;18.568;2022-08-04T06:58:22;97619.34;;;36.67;34.42
31346;BME280;21711;49.708;18.568;2022-08-04T07:00:52;97618.56;;;36.66;34.33
31346;BME280;21711;49.708;18.568;2022-08-04T07:03:21;97624.31;;;37.33;33.95
31346;BME280;21711;49.708;18.568;2022-08-04T07:05:50;97610.50;;;36.72;35.56
31346;BME280;21711;49.708;18.568;2022-08-04T07:08:20;97607.75;;;36.98;32.43
31346;BME280;21711;49.708;18.568;2022-08-04T07:10:48;97619.91;;;37.58;33.84
31346;BME280;21711;49.708;18.568;2022-08-04T07:13:17;97612.25;;;37.75;32.86
31346;BME280;21711;49.708;18.568;2022-08-04T07:15:47;97618.34;;;38.47;31.72
31346;BME280;21711;49.708;18.568;2022-08-04T07:18:15;97629.81;;;37.69;33.39
31346;BME280;21711;49.708;18.568;2022-08-04T07:20:45;97620.03;;;38.12;32.45
31346;BME280;21711;49.708;18.568;2022-08-04T07:23:14;97619.09;;;37.48;33.11
31346;BME280;21711;49.708;18.568;2022-08-04T07:25:51;97621.97;;;37.80;32.41
31346;BME280;21711;49.708;18.568;2022-08-04T07:28:39;97623.69;;;37.52;34.05
31346;BME280;21711;49.708;18.568;2022-08-04T07:31:12;97622.53;;;39.02;29.84
31346;BME280;21711;49.708;18.568;2022-08-04T07:34:01;97621.50;;;39.18;28.70
31346;BME280;21711;49.708;18.568;2022-08-04T07:36:54;97624.00;;;39.72;29.11
31346;BME280;21711;49.708;18.568;2022-08-04T07:39:25;97617.72;;;39.53;26.63
31346;BME280;21711;49.708;18.568;2022-08-04T07:41:58;97618.25;;;40.22;26.09
31346;BME280;21711;49.708;18.568;2022-08-04T07:44:31;97617.22;;;39.92;27.60
31346;BME280;21711;49.708;18.568;2022-08-04T07:47:01;97616.63;;;39.97;28.38
31346;BME280;21711;49.708;18.568;2022-08-04T07:49:29;97617.69;;;40.00;28.11
31346;BME280;21711;49.708;18.568;2022-08-04T07:52:17;97613.97;;;39.93;26.75
31346;BME280;21711;49.708;18.568;2022-08-04T07:54:44;97607.13;;;40.41;26.78
31346;BME280;21711;49.708;18.568;2022-08-04T07:57:12;97611.09;;;41.87;25.58
31346;BME280;21711;49.708;18.568;2022-08-04T08:00:00;97607.97;;;40.91;24.00
31346;BME280;21711;49.708;18.568;2022-08-04T08:02:38;97608.97;;;41.82;25.24
31346;BME280;21711;49.708;18.568;2022-08-04T08:05:09;97604.09;;;42.06;25.38
31346;BME280;21711;49.708;18.568;2022-08-04T08:07:39;97609.97;;;43.16;24.72
31346;BME280;21711;49.708;18.568;2022-08-04T08:10:21;97606.84;;;43.50;24.03
31346;BME280;21711;49.708;18.568;2022-08-04T08:12:51;97605.16;;;43.58;24.74
31346;BME280;21711;49.708;18.568;2022-08-04T08:15:19;97605.81;;;41.74;27.19
31346;BME280;21711;49.708;18.568;2022-08-04T08:17:47;97599.72;;;42.00;26.03
31346;BME280;21711;49.708;18.568;2022-08-04T08:20:28;97603.00;;;42.85;24.50
31346;BME280;21711;49.708;18.568;2022-08-04T08:22:59;97602.00;;;42.31;25.72
31346;BME280;21711;49.708;18.568;2022-08-04T08:25:32;97603.09;;;41.49;24.89
31346;BME280;21711;49.708;18.568;2022-08-04T08:28:03;97603.06;;;42.70;23.16
31346;BME280;21711;49.708;18.568;2022-08-04T08:30:32;97597.56;;;41.64;25.46
31346;BME280;21711;49.708;18.568;2022-08-04T08:33:06;97599.22;;;41.86;23.81
31346;BME280;21711;49.708;18.568;2022-08-04T08:41:34;97604.63;;;43.13;23.28
31346;BME280;21711;49.708;18.568;2022-08-04T08:55:08;97618.78;;;44.85;21.65
31346;BME280;21711;49.708;18.568;2022-08-04T09:07:12;97602.19;;;42.28;21.36
31346;BME280;21711;49.708;18.568;2022-08-04T09:10:14;97609.91;;;43.31;21.69
31346;BME280;21711;49.708;18.568;2022-08-04T09:15:39;97609.16;;;44.86;20.25
31346;BME280;21711;49.708;18.568;2022-08-04T09:18:29;97607.09;;;43.52;20.14
31346;BME280;21711;49.708;18.568;2022-08-04T09:21:16;97618.66;;;45.12;18.07
31346;BME280;21711;49.708;18.568;2022-08-04T09:27:02;97610.03;;;42.29;23.06
31346;BME280;21711;49.708;18.568;2022-08-04T09:35:41;97595.47;;;43.06;20.47
31346;BME280;21711;49.708;18.568;2022-08-04T09:38:32;97590.25;;;43.88;22.22
31346;BME280;21711;49.708;18.568;2022-08-04T09:45:15;97600.19;;;44.27;22.05
31346;BME280;21711;49.708;18.568;2022-08-04T09:51:23;97579.06;;;43.56;23.30
31346;BME280;21711;49.708;18.568;2022-08-04T09:54:52;97570.13;;;42.63;23.57
31346;BME280;21711;49.708;18.568;2022-08-04T10:02:58;97575.63;;;42.78;22.20
31346;BME280;21711;49.708;18.568;2022-08-04T10:06:04;97573.81;;;42.75;24.01
31346;BME280;21711;49.708;18.568;2022-08-04T10:12:14;97572.88;;;41.51;22.76
31346;BME280;21711;49.708;18.568;2022-08-04T10:14:47;97572.91;;;40.10;23.21
31346;BME280;21711;49.708;18.568;2022-08-04T10:17:38;97567.16;;;41.70;23.35
31346;BME280;21711;49.708;18.568;2022-08-04T10:23:39;97566.56;;;40.87;25.16
31346;BME280;21711;49.708;18.568;2022-08-04T10:26:44;97568.88;;;41.67;21.78
31346;BME280;21711;49.708;18.568;2022-08-04T10:29:21;97564.75;;;41.63;24.06
31346;BME280;21711;49.708;18.568;2022-08-04T10:32:18;97560.44;;;42.07;20.89
31346;BME280;21711;49.708;18.568;2022-08-04T10:35:09;97564.47;;;41.61;23.31
31346;BME280;21711;49.708;18.568;2022-08-04T10:40:46;97559.78;;;39.49;27.16
31346;BME280;21711;49.708;18.568;2022-08-04T10:43:24;97559.94;;;40.26;23.54
31346;BME280;21711;49.708;18.568;2022-08-04T10:46:13;97559.69;;;40.15;26.26
31346;BME280;21711;49.708;18.568;2022-08-04T10:49:06;97557.66;;;39.53;26.41
31346;BME280;21711;49.708;18.568;2022-08-04T10:57:29;97548.72;;;37.79;27.09
31346;BME280;21711;49.708;18.568;2022-08-04T11:00:12;97543.25;;;37.66;30.96
31346;BME280;21711;49.708;18.568;2022-08-04T11:02:52;97537.78;;;37.98;25.18
31346;BME280;21711;49.708;18.568;2022-08-04T11:05:45;97548.00;;;37.66;25.01
31346;BME280;21711;49.708;18.568;2022-08-04T11:11:32;97536.19;;;37.65;26.58
31346;BME280;21711;49.708;18.568;2022-08-04T11:15:11;97533.50;;;37.52;28.97
31346;BME280;21711;49.708;18.568;2022-08-04T11:17:49;97539.69;;;36.72;25.71
31346;BME280;21711;49.708;18.568;2022-08-04T11:20:37;97533.94;;;35.89;29.93
31346;BME280;21711;49.708;18.568;2022-08-04T11:23:17;97531.22;;;36.54;29.68
31346;BME280;21711;49.708;18.568;2022-08-04T11:25:58;97529.38;;;36.25;27.54
31346;BME280;21711;49.708;18.568;2022-08-04T11:29:15;97533.75;;;36.48;30.37
31346;BME280;21711;49.708;18.568;2022-08-04T11:31:48;97526.25;;;36.75;28.04
31346;BME280;21711;49.708;18.568;2022-08-04T11:34:25;97526.81;;;36.56;28.78
31346;BME280;21711;49.708;18.568;2022-08-04T11:37:12;97529.78;;;36.36;28.18
31346;BME280;21711;49.708;18.568;2022-08-04T11:39:49;97524.75;;;35.66;29.93
31346;BME280;21711;49.708;18.568;2022-08-04T11:42:27;97531.47;;;35.19;33.20
31346;BME280;21711;49.708;18.568;2022-08-04T11:45:14;97523.41;;;35.11;32.26
31346;BME280;21711;49.708;18.568;2022-08-04T11:47:57;97525.84;;;34.93;32.51
31346;BME280;21711;49.708;18.568;2022-08-04T11:53:23;97514.94;;;34.22;31.38
31346;BME280;21711;49.708;18.568;2022-08-04T11:55:57;97505.31;;;34.14;33.16
31346;BME280;21711;49.708;18.568;2022-08-04T11:58:35;97504.78;;;33.82;31.98
31346;BME280;21711;49.708;18.568;2022-08-04T12:06:55;97489.03;;;33.46;34.94
31346;BME280;21711;49.708;18.568;2022-08-04T12:10:03;97500.13;;;33.39;36.89
31346;BME280;21711;49.708;18.568;2022-08-04T12:16:02;97479.28;;;32.53;34.14
31346;BME280;21711;49.708;18.568;2022-08-04T12:21:49;97482.28;;;32.35;36.04
31346;BME280;21711;49.708;18.568;2022-08-04T12:24:32;97474.84;;;32.35;35.13
31346;BME280;21711;49.708;18.568;2022-08-04T12:27:16;97475.94;;;31.83;33.92
31346;BME280;21711;49.708;18.568;2022-08-04T12:29:45;97480.75;;;31.40;36.44
31346;BME280;21711;49.708;18.568;2022-08-04T12:33:01;97477.91;;;31.47;35.75
31346;BME280;21711;49.708;18.568;2022-08-04T12:35:44;97487.34;;;31.74;40.51
31346;BME280;21711;49.708;18.568;2022-08-04T12:38:33;97483.59;;;31.64;35.65
31346;BME280;21711;49.708;18.568;2022-08-04T12:41:01;97486.41;;;31.57;32.70
31346;BME280;21711;49.708;18.568;2022-08-04T12:43:41;97480.75;;;31.71;33.80
31346;BME280;21711;49.708;18.568;2022-08-04T12:46:20;97480.19;;;31.53;31.79
31346;BME280;21711;49.708;18.568;2022-08-04T12:48:49;97478.50;;;31.28;32.72
31346;BME280;21711;49.708;18.568;2022-08-04T12:51:18;97480.94;;;31.57;34.20
31346;BME280;21711;49.708;18.568;2022-08-04T12:54:08;97478.34;;;31.77;33.86
31346;BME280;21711;49.708;18.568;2022-08-04T12:56:37;97478.69;;;31.83;37.76
31346;BME280;21711;49.708;18.568;2022-08-04T12:59:07;97468.31;;;32.01;37.79
31346;BME280;21711;49.708;18.568;2022-08-04T13:01:39;97463.56;;;32.06;37.12
31346;BME280;21711;49.708;18.568;2022-08-04T13:04:33;97457.09;;;32.20;33.48
31346;BME280;21711;49.708;18.568;2022-08-04T13:07:20;97462.47;;;31.99;33.31
31346;BME280;21711;49.708;18.568;2022-08-04T13:09:48;97457.09;;;31.92;33.91
31346;BME280;21711;49.708;18.568;2022-08-04T13:12:22;97455.97;;;31.86;38.31
31346;BME280;21711;49.708;18.568;2022-08-04T13:15:14;97456.13;;;31.75;32.01
31346;BME280;21711;49.708;18.568;2022-08-04T13:18:09;97454.56;;;31.74;32.95
31346;BME280;21711;49.708;18.568;2022-08-04T13:20:43;97449.25;;;31.94;37.11
31346;BME280;21711;49.708;18.568;2022-08-04T13:23:15;97443.91;;;31.83;32.10
31346;BME280;21711;49.708;18.568;2022-08-04T13:25:51;97446.53;;;31.94;32.79
31346;BME280;21711;49.708;18.568;2022-08-04T13:29:03;97446.34;;;31.78;30.14
31346;BME280;21711;49.708;18.568;2022-08-04T13:31:44;97445.69;;;31.66;29.46
31346;BME280;21711;49.708;18.568;2022-08-04T13:34:19;97448.81;;;31.65;30.68
31346;BME280;21711;49.708;18.568;2022-08-04T13:36:48;97444.84;;;31.42;29.30
31346;BME280;21711;49.708;18.568;2022-08-04T13:39:21;97443.94;;;31.14;35.24
31346;BME280;21711;49.708;18.568;2022-08-04T13:41:53;97446.91;;;31.27;33.07
31346;BME280;21711;49.708;18.568;2022-08-04T13:44:29;97442.81;;;31.46;35.09
31346;BME280;21711;49.708;18.568;2022-08-04T13:47:05;97443.25;;;31.41;29.83
31346;BME280;21711;49.708;18.568;2022-08-04T13:49:39;97440.69;;;31.61;30.90
31346;BME280;21711;49.708;18.568;2022-08-04T13:52:26;97440.63;;;31.65;34.87
31346;BME280;21711;49.708;18.568;2022-08-04T13:54:54;97444.38;;;31.47;34.02
31346;BME280;21711;49.708;18.568;2022-08-04T13:57:29;97434.34;;;31.36;32.85
31346;BME280;21711;49.708;18.568;2022-08-04T14:00:05;97429.59;;;31.41;32.17
31346;BME280;21711;49.708;18.568;2022-08-04T14:02:48;97431.84;;;31.15;34.33
31346;BME280;21711;49.708;18.568;2022-08-04T14:05:28;97435.94;;;30.95;39.93
31346;BME280;21711;49.708;18.568;2022-08-04T14:08:19;97434.47;;;30.83;38.31
31346;BME280;21711;49.708;18.568;2022-08-04T14:10:55;97424.69;;;30.90;33.91
31346;BME280;21711;49.708;18.568;2022-08-04T14:13:32;97426.88;;;31.06;35.32
31346;BME280;21711;49.708;18.568;2022-08-04T14:16:20;97430.09;;;30.93;38.87
31346;BME280;21711;49.708;18.568;2022-08-04T14:18:57;97422.03;;;30.82;41.62
31346;BME280;21711;49.708;18.568;2022-08-04T14:21:26;97413.44;;;30.84;41.27
31346;BME280;21711;49.708;18.568;2022-08-04T14:23:55;97414.34;;;30.66;41.87
31346;BME280;21711;49.708;18.568;2022-08-04T14:26:32;97413.72;;;30.48;42.35
31346;BME280;21711;49.708;18.568;2022-08-04T14:29:12;97413.28;;;30.53;39.88
31346;BME280;21711;49.708;18.568;2022-08-04T14:32:05;97417.34;;;30.34;43.11
31346;BME280;21711;49.708;18.568;2022-08-04T14:34:43;97412.41;;;30.10;40.62
31346;BME280;21711;49.708;18.568;2022-08-04T14:37:16;97412.47;;;30.03;40.12
31346;BME280;21711;49.708;18.568;2022-08-04T14:39:52;97415.06;;;30.28;42.71
31346;BME280;21711;49.708;18.568;2022-08-04T14:42:46;97418.28;;;30.12;42.25
31346;BME280;21711;49.708;18.568;2022-08-04T14:45:40;97415.16;;;30.10;45.20
31346;BME280;21711;49.708;18.568;2022-08-04T14:48:21;97412.16;;;29.93;42.82
31346;BME280;21711;49.708;18.568;2022-08-04T14:50:49;97412.16;;;29.93;44.15
31346;BME280;21711;49.708;18.568;2022-08-04T14:53:23;97406.03;;;29.75;44.03
31346;BME280;21711;49.708;18.568;2022-08-04T14:55:59;97413.88;;;29.65;44.53
31346;BME280;21711;49.708;18.568;2022-08-04T14:58:33;97404.88;;;29.72;44.57
31346;BME280;21711;49.708;18.568;2022-08-04T15:01:09;97411.94;;;29.66;46.24
31346;BME280;21711;49.708;18.568;2022-08-04T15:03:42;97406.06;;;29.67;47.86
31346;BME280;21711;49.708;18.568;2022-08-04T15:06:24;97411.16;;;29.58;49.26
31346;BME280;21711;49.708;18.568;2022-08-04T15:08:55;97411.63;;;29.42;51.20
31346;BME280;21711;49.708;18.568;2022-08-04T15:11:24;97404.22;;;29.43;47.24
31346;BME280;21711;49.708;18.568;2022-08-04T15:13:54;97414.00;;;29.33;48.77
31346;BME280;21711;49.708;18.568;2022-08-04T15:16:27;97416.75;;;29.22;53.12
31346;BME280;21711;49.708;18.568;2022-08-04T15:18:55;97417.91;;;29.17;54.87
31346;BME280;21711;49.708;18.568;2022-08-04T15:21:28;97414.84;;;29.11;51.32
31346;BME280;21711;49.708;18.568;2022-08-04T15:23:56;97416.38;;;29.16;51.89
31346;BME280;21711;49.708;18.568;2022-08-04T15:26:43;97419.50;;;29.04;51.56
31346;BME280;21711;49.708;18.568;2022-08-04T15:29:39;97425.72;;;28.82;52.61
31346;BME280;21711;49.708;18.568;2022-08-04T15:32:34;97414.06;;;28.85;52.15
31346;BME280;21711;49.708;18.568;2022-08-04T15:35:09;97410.19;;;28.79;51.96
31346;BME280;21711;49.708;18.568;2022-08-04T15:38:07;97415.66;;;28.79;52.01
31346;BME280;21711;49.708;18.568;2022-08-04T15:41:01;97411.38;;;28.60;55.35
31346;BME280;21711;49.708;18.568;2022-08-04T15:46:07;97405.97;;;28.42;54.91
31346;BME280;21711;49.708;18.568;2022-08-04T15:48:54;97405.16;;;28.41;53.17
31346;BME280;21711;49.708;18.568;2022-08-04T15:51:25;97406.34;;;28.47;53.97
31346;BME280;21711;49.708;18.568;2022-08-04T15:58:57;97400.91;;;28.33;56.05
31346;BME280;21711;49.708;18.568;2022-08-04T16:01:25;97406.69;;;28.17;55.84
31346;BME280;21711;49.708;18.568;2022-08-04T16:03:54;97397.34;;;28.10;54.80
31346;BME280;21711;49.708;18.568;2022-08-04T16:09:03;97390.75;;;28.01;56.76
31346;BME280;21711;49.708;18.568;2022-08-04T16:16:29;97391.91;;;27.85;55.73
31346;BME280;21711;49.708;18.568;2022-08-04T16:21:54;97385.66;;;27.77;57.43
31346;BME280;21711;49.708;18.568;2022-08-04T16:24:36;97394.94;;;27.65;55.33
31346;BME280;21711;49.708;18.568;2022-08-04T16:27:06;97397.66;;;27.62;58.22
31346;BME280;21711;49.708;18.568;2022-08-04T16:29:44;97395.25;;;27.46;58.46
31346;BME280;21711;49.708;18.568;2022-08-04T16:32:22;97397.16;;;27.38;58.54
31346;BME280;21711;49.708;18.568;2022-08-04T16:37:31;97393.25;;;27.28;58.69
31346;BME280;21711;49.708;18.568;2022-08-04T16:40:25;97396.69;;;27.17;61.02
31346;BME280;21711;49.708;18.568;2022-08-04T16:43:12;97390.44;;;27.13;58.82
31346;BME280;21711;49.708;18.568;2022-08-04T16:45:53;97391.63;;;27.12;59.39
31346;BME280;21711;49.708;18.568;2022-08-04T16:48:33;97391.97;;;27.07;61.40
31346;BME280;21711;49.708;18.568;2022-08-04T16:51:04;97393.13;;;27.02;59.86
31346;BME280;21711;49.708;18.568;2022-08-04T16:56:31;97396.16;;;26.94;57.26
31346;BME280;21711;49.708;18.568;2022-08-04T16:59:09;97391.47;;;26.90;59.20
31346;BME280;21711;49.708;18.568;2022-08-04T17:01:57;97392.19;;;26.80;61.63
31346;BME280;21711;49.708;18.568;2022-08-04T17:04:33;97392.88;;;26.70;61.04
31346;BME280;21711;49.708;18.568;2022-08-04T17:07:04;97394.00;;;26.61;61.41
31346;BME280;21711;49.708;18.568;2022-08-04T17:09:32;97398.19;;;26.51;62.04
31346;BME280;21711;49.708;18.568;2022-08-04T17:11:59;97386.88;;;26.38;62.09
31346;BME280;21711;49.708;18.568;2022-08-04T17:14:29;97385.63;;;26.29;63.10
31346;BME280;21711;49.708;18.568;2022-08-04T17:16:59;97387.16;;;26.26;62.34
31346;BME280;21711;49.708;18.568;2022-08-04T17:19:27;97384.34;;;26.19;60.51
31346;BME280;21711;49.708;18.568;2022-08-04T17:22:01;97383.94;;;26.17;62.61
31346;BME280;21711;49.708;18.568;2022-08-04T17:24:37;97382.28;;;26.05;60.48
31346;BME280;21711;49.708;18.568;2022-08-04T17:27:07;97381.47;;;26.00;60.92
31346;BME280;21711;49.708;18.568;2022-08-04T17:29:54;97391.06;;;25.91;64.60
31346;BME280;21711;49.708;18.568;2022-08-04T17:32:22;97390.13;;;25.76;65.42
31346;BME280;21711;49.708;18.568;2022-08-04T17:34:58;97388.53;;;25.71;63.56
31346;BME280;21711;49.708;18.568;2022-08-04T17:37:26;97387.63;;;25.59;64.06
31346;BME280;21711;49.708;18.568;2022-08-04T17:40:15;97389.75;;;25.43;65.82
31346;BME280;21711;49.708;18.568;2022-08-04T17:43:05;97389.25;;;25.33;69.25
31346;BME280;21711;49.708;18.568;2022-08-04T17:51:55;97393.03;;;24.98;69.89
31346;BME280;21711;49.708;18.568;2022-08-04T17:54:38;97392.22;;;24.94;67.75
31346;BME280;21711;49.708;18.568;2022-08-04T17:57:19;97400.16;;;24.83;68.09
31346;BME280;21711;49.708;18.568;2022-08-04T17:59:56;97400.22;;;24.87;68.74
31346;BME280;21711;49.708;18.568;2022-08-04T18:02:29;97397.66;;;24.71;70.41
31346;BME280;21711;49.708;18.568;2022-08-04T18:05:02;97399.47;;;24.63;69.60
31346;BME280;21711;49.708;18.568;2022-08-04T18:07:39;97401.16;;;24.48;70.00